Time;durP1;ratioP1;P1;durP2;ratioP2;P2;SDS_P1;SDS_P2;PMS_P1;PMS_P2;Temp;Humidity;BMP_temperature;BMP_pressure;BME280_temperature;BME280_humidity;BME280_pressure;Samples;Min_cycle;Max_cycle;Signal;HPM_P1;HPM_P2
2024/04/27 00:00:07;;;;;;;6.72;2.20;;;;;;;;;;5370236;26;20036;-75
2024/04/27 00:02:40;;;;;;;8.30;2.25;;;;;;;;;;5370569;26;20028;-78
2024/04/27 00:05:11;;;;;;;3.33;2.28;;;;;;;;;;5372587;26;20012;-75
2024/04/27 00:07:42;;;;;;;2.72;1.92;;;;;;;;;;5371710;26;20024;-75
2024/04/27 00:10:13;;;;;;;6.53;1.80;;;;;;;;;;5370009;26;20468;-76
2024/04/27 00:12:48;;;;;;;4.63;1.95;;;;;;;;;;5370264;26;20032;-76
2024/04/27 00:15:22;;;;;;;3.65;1.67;;;;;;;;;;5369929;26;20372;-76
2024/04/27 00:17:52;;;;;;;2.83;1.92;;;;;;;;;;5369474;26;20024;-75
2024/04/27 00:20:23;;;;;;;5.82;2.83;;;;;;;;;;5367775;26;20494;-76
2024/04/27 00:22:54;;;;;;;4.60;2.25;;;;;;;;;;5368664;26;20028;-76
2024/04/27 00:25:25;;;;;;;9.23;2.58;;;;;;;;;;5372281;26;20021;-77
2024/04/27 00:27:55;;;;;;;7.22;2.35;;;;;;;;;;5373353;26;20475;-76
2024/04/27 00:30:26;;;;;;;6.05;2.50;;;;;;;;;;5372998;26;20036;-75
2024/04/27 00:32:57;;;;;;;8.13;2.60;;;;;;;;;;5369832;26;20000;-78
2024/04/27 00:35:29;;;;;;;11.95;2.80;;;;;;;;;;5372179;26;20038;-76
2024/04/27 00:37:59;;;;;;;5.75;2.75;;;;;;;;;;5371987;26;20003;-78
2024/04/27 00:40:30;;;;;;;7.35;2.67;;;;;;;;;;5370565;26;19993;-78
2024/04/27 00:43:00;;;;;;;5.45;2.63;;;;;;;;;;5372197;26;20003;-78
2024/04/27 00:45:30;;;;;;;9.52;2.63;;;;;;;;;;5372262;26;20020;-76
2024/04/27 00:48:02;;;;;;;4.45;2.15;;;;;;;;;;5371626;26;19997;-77
2024/04/27 00:50:36;;;;;;;4.57;2.70;;;;;;;;;;5373273;26;20020;-76
2024/04/27 00:53:06;;;;;;;3.40;2.30;;;;;;;;;;5372317;26;20029;-77
2024/04/27 00:55:38;;;;;;;7.25;2.88;;;;;;;;;;5373893;26;20478;-79
2024/04/27 00:58:08;;;;;;;8.73;3.10;;;;;;;;;;5373186;26;20024;-75
2024/04/27 01:00:39;;;;;;;4.63;2.63;;;;;;;;;;5372479;26;20028;-78
2024/04/27 01:03:10;;;;;;;6.45;3.03;;;;;;;;;;5373450;26;20043;-76
2024/04/27 01:05:41;;;;;;;6.97;2.15;;;;;;;;;;5373720;26;20020;-76
2024/04/27 01:08:11;;;;;;;6.93;4.00;;;;;;;;;;5373020;26;20025;-76
2024/04/27 01:10:42;;;;;;;8.50;2.65;;;;;;;;;;5373550;26;20049;-78
2024/04/27 01:13:14;;;;;;;7.30;2.85;;;;;;;;;;5373216;26;20032;-77
2024/04/27 01:15:46;;;;;;;5.22;2.42;;;;;;;;;;5373066;26;20028;-76
2024/04/27 01:18:17;;;;;;;5.35;2.90;;;;;;;;;;5372893;26;19999;-76
2024/04/27 01:20:48;;;;;;;5.20;3.20;;;;;;;;;;5372791;26;20021;-76
2024/04/27 01:23:18;;;;;;;8.00;2.72;;;;;;;;;;5372961;26;20020;-76
2024/04/27 01:25:48;;;;;;;5.97;2.40;;;;;;;;;;5370955;26;20660;-78
2024/04/27 01:28:18;;;;;;;9.20;3.03;;;;;;;;;;5372801;26;20032;-76
2024/04/27 01:30:48;;;;;;;7.50;3.00;;;;;;;;;;5372413;26;20024;-76
2024/04/27 01:33:19;;;;;;;9.18;2.90;;;;;;;;;;5372109;26;21214;-76
2024/04/27 01:35:50;;;;;;;5.00;2.47;;;;;;;;;;5372781;26;20380;-77
2024/04/27 01:38:20;;;;;;;5.78;2.00;;;;;;;;;;5370939;26;20003;-78
2024/04/27 01:40:50;;;;;;;8.80;2.47;;;;;;;;;;5372203;26;20529;-78
2024/04/27 01:43:22;;;;;;;5.00;2.40;;;;;;;;;;5372756;26;20609;-77
2024/04/27 01:45:52;;;;;;;3.00;2.03;;;;;;;;;;5372288;26;20501;-76
2024/04/27 01:48:23;;;;;;;7.53;2.38;;;;;;;;;;5372137;26;20032;-75
2024/04/27 01:50:54;;;;;;;5.45;2.47;;;;;;;;;;5372250;26;20374;-75
2024/04/27 01:53:25;;;;;;;7.40;2.97;;;;;;;;;;5371555;26;20036;-76
2024/04/27 01:55:56;;;;;;;8.07;2.33;;;;;;;;;;5371204;26;20032;-77
2024/04/27 01:58:26;;;;;;;5.07;2.85;;;;;;;;;;5401082;26;20028;-76
2024/04/27 02:00:57;;;;;;;6.78;2.63;;;;;;;;;;5372419;26;20032;-78
2024/04/27 02:03:28;;;;;;;10.48;3.10;;;;;;;;;;5372836;26;20490;-77
2024/04/27 02:05:59;;;;;;;7.15;2.53;;;;;;;;;;5372122;26;20020;-76
2024/04/27 02:08:30;;;;;;;7.43;2.40;;;;;;;;;;5373275;26;20366;-75
2024/04/27 02:11:00;;;;;;;7.50;2.45;;;;;;;;;;5371923;26;20032;-78
2024/04/27 02:13:32;;;;;;;7.00;2.30;;;;;;;;;;5371567;26;20028;-76
2024/04/27 02:19:10;;;;;;;3.92;2.15;;;;;;;;;;5371980;26;20033;-76
2024/04/27 02:21:41;;;;;;;4.95;2.05;;;;;;;;;;5371523;26;20024;-78
2024/04/27 02:24:13;;;;;;;3.55;1.90;;;;;;;;;;5370125;26;20357;-76
2024/04/27 02:26:44;;;;;;;4.72;1.92;;;;;;;;;;5371951;26;20024;-76
2024/04/27 02:29:15;;;;;;;2.50;1.40;;;;;;;;;;5371320;26;20033;-76
2024/04/27 02:31:45;;;;;;;5.03;1.73;;;;;;;;;;5371787;26;21146;-76
2024/04/27 02:34:16;;;;;;;3.13;1.70;;;;;;;;;;5371130;26;20032;-77
2024/04/27 02:36:47;;;;;;;2.22;1.50;;;;;;;;;;5371762;26;20557;-78
2024/04/27 02:39:18;;;;;;;7.65;1.98;;;;;;;;;;5371128;26;20006;-76
2024/04/27 02:41:49;;;;;;;5.63;1.88;;;;;;;;;;5371480;26;20021;-75
2024/04/27 02:44:19;;;;;;;5.30;1.73;;;;;;;;;;5371167;26;20032;-78
2024/04/27 02:46:51;;;;;;;3.67;1.90;;;;;;;;;;5371228;26;20024;-76
2024/04/27 02:49:22;;;;;;;6.00;1.90;;;;;;;;;;5371877;26;20537;-77
2024/04/27 02:51:52;;;;;;;3.45;1.55;;;;;;;;;;5370695;26;20024;-76
2024/04/27 02:54:25;;;;;;;3.22;1.80;;;;;;;;;;5371790;26;20024;-76
2024/04/27 02:56:57;;;;;;;3.53;1.30;;;;;;;;;;5371483;26;20028;-77
2024/04/27 02:59:29;;;;;;;5.43;1.83;;;;;;;;;;5371534;26;20036;-77
2024/04/27 03:01:59;;;;;;;5.22;1.67;;;;;;;;;;5370745;26;20040;-78
2024/04/27 03:04:30;;;;;;;2.42;1.70;;;;;;;;;;5369472;26;20007;-77
2024/04/27 03:07:01;;;;;;;2.35;1.67;;;;;;;;;;5371817;26;20536;-77
2024/04/27 03:09:31;;;;;;;3.30;1.85;;;;;;;;;;5372657;26;20044;-75
2024/04/27 03:12:07;;;;;;;4.95;1.85;;;;;;;;;;5370965;26;20020;-77
2024/04/27 03:14:40;;;;;;;2.97;2.10;;;;;;;;;;5371250;26;20158;-78
2024/04/27 03:17:11;;;;;;;2.38;1.73;;;;;;;;;;5371193;26;20028;-77
2024/04/27 03:19:41;;;;;;;3.80;1.75;;;;;;;;;;5371320;26;20024;-79
2024/04/27 03:22:12;;;;;;;15.48;2.00;;;;;;;;;;5370809;26;20021;-78
2024/04/27 03:24:43;;;;;;;3.35;1.83;;;;;;;;;;5371344;26;20032;-77
2024/04/27 03:27:14;;;;;;;5.20;2.00;;;;;;;;;;5370645;26;20033;-75
2024/04/27 03:29:51;;;;;;;4.35;2.15;;;;;;;;;;5370794;26;20463;-77
2024/04/27 03:32:22;;;;;;;5.75;2.00;;;;;;;;;;5371112;26;20039;-76
2024/04/27 03:34:53;;;;;;;3.53;2.10;;;;;;;;;;5371379;26;20321;-76
2024/04/27 03:37:23;;;;;;;5.03;2.38;;;;;;;;;;5369360;26;20028;-77
2024/04/27 03:39:54;;;;;;;4.50;2.30;;;;;;;;;;5371129;26;20024;-76
2024/04/27 03:42:24;;;;;;;5.68;2.38;;;;;;;;;;5370222;26;20024;-77
2024/04/27 03:44:54;;;;;;;2.50;1.90;;;;;;;;;;5371060;26;20636;-77
2024/04/27 03:47:26;;;;;;;4.85;2.65;;;;;;;;;;5370697;26;20029;-78
2024/04/27 03:49:58;;;;;;;5.80;2.40;;;;;;;;;;5371461;26;20024;-76
2024/04/27 03:52:29;;;;;;;6.75;1.98;;;;;;;;;;5370320;26;20043;-77
2024/04/27 03:55:00;;;;;;;6.55;2.13;;;;;;;;;;5370253;26;20032;-78
2024/04/27 03:57:30;;;;;;;4.80;2.20;;;;;;;;;;5369877;26;20032;-75
2024/04/27 04:00:02;;;;;;;5.03;2.22;;;;;;;;;;5370313;26;20381;-74
2024/04/27 04:02:33;;;;;;;5.93;2.85;;;;;;;;;;5370431;26;20028;-77
2024/04/27 04:05:03;;;;;;;4.65;2.30;;;;;;;;;;5370020;26;20467;-75
2024/04/27 04:07:36;;;;;;;3.15;2.30;;;;;;;;;;5370283;26;20033;-76
2024/04/27 04:10:06;;;;;;;4.60;2.55;;;;;;;;;;5370575;26;20020;-75
2024/04/27 04:12:37;;;;;;;4.25;2.40;;;;;;;;;;5370760;26;20020;-78
2024/04/27 04:15:07;;;;;;;2.83;2.30;;;;;;;;;;5370257;26;20036;-75
2024/04/27 04:17:39;;;;;;;6.60;2.15;;;;;;;;;;5369416;26;20028;-77
2024/04/27 04:20:10;;;;;;;4.45;2.60;;;;;;;;;;5370328;26;20024;-76
2024/04/27 04:22:41;;;;;;;4.95;2.22;;;;;;;;;;5369854;26;20052;-77
2024/04/27 04:25:12;;;;;;;6.65;2.38;;;;;;;;;;5369840;26;20024;-76
2024/04/27 04:27:43;;;;;;;7.22;2.88;;;;;;;;;;5369943;26;20037;-75
2024/04/27 04:30:14;;;;;;;7.07;2.58;;;;;;;;;;5369329;26;20037;-77
2024/04/27 04:32:49;;;;;;;3.45;2.30;;;;;;;;;;5370034;26;20024;-77
2024/04/27 04:35:19;;;;;;;5.85;2.63;;;;;;;;;;5369822;26;20479;-77
2024/04/27 04:37:49;;;;;;;9.55;3.13;;;;;;;;;;5369705;26;20032;-78
2024/04/27 04:40:20;;;;;;;10.57;2.65;;;;;;;;;;5367706;26;20458;-75
2024/04/27 04:42:54;;;;;;;4.30;2.60;;;;;;;;;;5369255;26;20056;-75
2024/04/27 04:45:26;;;;;;;4.35;2.45;;;;;;;;;;5368114;26;20000;-76
2024/04/27 04:47:57;;;;;;;6.88;2.70;;;;;;;;;;5370035;26;20024;-76
2024/04/27 04:50:29;;;;;;;4.60;2.45;;;;;;;;;;5370104;26;20042;-76
2024/04/27 04:52:59;;;;;;;6.18;2.75;;;;;;;;;;5369129;26;20037;-78
2024/04/27 04:55:30;;;;;;;3.60;2.40;;;;;;;;;;5367837;26;20571;-78
2024/04/27 04:58:00;;;;;;;4.03;2.63;;;;;;;;;;5369501;26;20036;-77
2024/04/27 05:00:30;;;;;;;7.07;2.90;;;;;;;;;;5368029;26;19996;-76
2024/04/27 05:03:02;;;;;;;4.18;2.58;;;;;;;;;;5369746;26;20491;-77
2024/04/27 05:05:33;;;;;;;5.15;2.75;;;;;;;;;;5370981;26;20045;-78
2024/04/27 05:08:05;;;;;;;7.60;2.88;;;;;;;;;;5369581;26;20036;-76
2024/04/27 05:10:36;;;;;;;4.43;2.35;;;;;;;;;;5372493;26;20032;-77
2024/04/27 05:13:07;;;;;;;7.32;3.15;;;;;;;;;;5372553;26;20075;-76
2024/04/27 05:15:38;;;;;;;4.57;2.95;;;;;;;;;;5372539;26;20011;-77
2024/04/27 05:18:09;;;;;;;7.00;2.65;;;;;;;;;;5372630;26;20013;-75
2024/04/27 05:20:40;;;;;;;12.52;3.03;;;;;;;;;;5372997;26;20179;-76
2024/04/27 05:23:10;;;;;;;3.80;2.70;;;;;;;;;;5373189;26;20032;-75
2024/04/27 05:25:42;;;;;;;7.30;3.10;;;;;;;;;;5373024;26;20032;-76
2024/04/27 05:28:13;;;;;;;8.25;3.60;;;;;;;;;;5372511;26;20028;-76
2024/04/27 05:30:44;;;;;;;4.43;2.80;;;;;;;;;;5371243;26;20491;-75
2024/04/27 05:33:14;;;;;;;7.43;2.95;;;;;;;;;;5372640;26;20040;-75
2024/04/27 05:35:45;;;;;;;4.07;3.15;;;;;;;;;;5371336;26;20020;-76
2024/04/27 05:38:16;;;;;;;6.43;2.83;;;;;;;;;;5373291;26;20020;-77
2024/04/27 05:40:46;;;;;;;4.30;3.00;;;;;;;;;;5372243;26;20000;-75
2024/04/27 05:43:17;;;;;;;6.82;2.88;;;;;;;;;;5372121;26;20024;-76
2024/04/27 05:45:47;;;;;;;5.15;3.03;;;;;;;;;;5372557;26;20471;-76
2024/04/27 05:48:17;;;;;;;5.07;2.80;;;;;;;;;;5372501;26;20025;-78
2024/04/27 05:50:47;;;;;;;5.85;3.08;;;;;;;;;;5371864;26;20020;-75
2024/04/27 05:53:18;;;;;;;5.28;2.95;;;;;;;;;;5371149;26;20021;-75
2024/04/27 05:55:49;;;;;;;9.68;2.85;;;;;;;;;;5370376;26;20036;-77
2024/04/27 05:58:19;;;;;;;11.02;3.75;;;;;;;;;;5372564;26;20024;-77
2024/04/27 06:00:49;;;;;;;7.70;3.33;;;;;;;;;;5400639;26;19999;-76
2024/04/27 06:03:22;;;;;;;3.85;3.08;;;;;;;;;;5372533;26;20020;-78
2024/04/27 06:05:52;;;;;;;5.35;2.60;;;;;;;;;;5371970;26;20026;-77
2024/04/27 06:08:24;;;;;;;6.53;3.45;;;;;;;;;;5372186;26;20024;-77
2024/04/27 06:10:55;;;;;;;4.28;3.03;;;;;;;;;;5371151;26;20032;-77
2024/04/27 06:13:27;;;;;;;7.10;4.05;;;;;;;;;;5371722;26;20035;-77
2024/04/27 06:16:01;;;;;;;9.95;3.63;;;;;;;;;;5372555;26;20873;-75
2024/04/27 06:18:33;;;;;;;4.50;2.90;;;;;;;;;;5371833;26;20044;-76
2024/04/27 06:21:04;;;;;;;3.35;2.80;;;;;;;;;;5371070;26;19996;-76
2024/04/27 06:23:35;;;;;;;10.38;3.03;;;;;;;;;;5372659;26;20020;-76
2024/04/27 06:26:06;;;;;;;5.32;3.10;;;;;;;;;;5372788;26;20028;-75
2024/04/27 06:28:42;;;;;;;5.57;2.55;;;;;;;;;;5370348;26;20028;-75
2024/04/27 06:31:12;;;;;;;11.48;3.55;;;;;;;;;;5372728;26;20052;-75
2024/04/27 06:33:42;;;;;;;9.90;3.10;;;;;;;;;;5371662;26;20028;-75
2024/04/27 06:36:13;;;;;;;7.32;3.20;;;;;;;;;;5371644;26;20040;-77
2024/04/27 06:38:44;;;;;;;7.97;3.33;;;;;;;;;;5371793;26;20027;-75
2024/04/27 06:41:14;;;;;;;8.25;3.60;;;;;;;;;;5372819;26;19996;-78
2024/04/27 06:43:44;;;;;;;5.57;2.85;;;;;;;;;;5371301;26;20367;-77
2024/04/27 06:46:15;;;;;;;4.22;3.03;;;;;;;;;;5371514;26;20024;-76
2024/04/27 06:48:52;;;;;;;10.95;3.35;;;;;;;;;;5370216;26;20020;-77
2024/04/27 06:51:22;;;;;;;5.78;3.92;;;;;;;;;;5371275;26;20024;-77
2024/04/27 06:53:52;;;;;;;4.68;3.03;;;;;;;;;;5371441;26;20024;-76
2024/04/27 06:56:24;;;;;;;7.57;3.35;;;;;;;;;;5371507;26;20490;-75
2024/04/27 06:58:56;;;;;;;4.38;3.05;;;;;;;;;;5373077;26;20491;-77
2024/04/27 07:01:26;;;;;;;4.68;3.28;;;;;;;;;;5371291;26;20007;-77
2024/04/27 07:03:57;;;;;;;7.70;3.53;;;;;;;;;;5371369;26;20020;-77
2024/04/27 07:06:27;;;;;;;5.53;3.55;;;;;;;;;;5370829;26;20039;-76
2024/04/27 07:08:58;;;;;;;9.75;3.47;;;;;;;;;;5371980;26;20025;-75
2024/04/27 07:11:29;;;;;;;5.03;2.92;;;;;;;;;;5371348;26;20029;-75
2024/04/27 07:14:01;;;;;;;5.90;3.35;;;;;;;;;;5370524;26;20032;-77
2024/04/27 07:16:31;;;;;;;4.00;3.10;;;;;;;;;;5371285;26;20028;-76
2024/04/27 07:19:01;;;;;;;8.45;3.20;;;;;;;;;;5370986;26;20032;-77
2024/04/27 07:21:31;;;;;;;8.18;3.53;;;;;;;;;;5370697;26;20299;-78
2024/04/27 07:24:21;;;;;;;7.28;3.70;;;;;;;;;;5371074;26;20529;-75
2024/04/27 07:26:54;;;;;;;5.00;3.63;;;;;;;;;;5370739;26;20025;-77
2024/04/27 07:29:24;;;;;;;4.82;3.42;;;;;;;;;;5372675;26;20024;-75
2024/04/27 07:31:54;;;;;;;8.88;3.88;;;;;;;;;;5369522;26;20471;-75
2024/04/27 07:34:25;;;;;;;5.10;3.28;;;;;;;;;;5370511;26;20032;-76
2024/04/27 07:36:55;;;;;;;5.05;3.50;;;;;;;;;;5370542;26;20020;-78
2024/04/27 07:39:26;;;;;;;7.00;3.38;;;;;;;;;;5370512;26;20024;-76
2024/04/27 07:42:00;;;;;;;6.25;3.83;;;;;;;;;;5371300;26;20459;-76
2024/04/27 07:44:35;;;;;;;5.93;3.25;;;;;;;;;;5342764;26;20028;-75
2024/04/27 07:47:06;;;;;;;8.30;3.22;;;;;;;;;;5370359;26;20024;-77
2024/04/27 07:49:36;;;;;;;5.38;3.17;;;;;;;;;;5369727;26;20024;-77
2024/04/27 07:52:07;;;;;;;7.45;3.40;;;;;;;;;;5370432;26;20637;-74
2024/04/27 07:54:37;;;;;;;8.05;3.60;;;;;;;;;;5371235;26;20020;-75
2024/04/27 07:57:08;;;;;;;8.45;3.55;;;;;;;;;;5370353;26;20044;-77
2024/04/27 07:59:38;;;;;;;4.93;3.55;;;;;;;;;;5371549;26;20479;-76
2024/04/27 08:02:09;;;;;;;7.45;3.42;;;;;;;;;;5370811;26;20028;-76
2024/04/27 08:04:39;;;;;;;5.85;3.83;;;;;;;;;;5370653;26;20023;-74
2024/04/27 08:07:09;;;;;;;9.43;3.95;;;;;;;;;;5370714;26;20032;-75
2024/04/27 08:09:40;;;;;;;7.47;3.42;;;;;;;;;;5370972;26;20024;-75
2024/04/27 08:12:11;;;;;;;8.50;3.95;;;;;;;;;;5370453;26;20024;-75
2024/04/27 08:14:41;;;;;;;7.35;3.67;;;;;;;;;;5368397;26;20036;-74
2024/04/27 08:17:12;;;;;;;6.97;3.70;;;;;;;;;;5370564;26;20024;-75
2024/04/27 08:19:44;;;;;;;9.38;3.80;;;;;;;;;;5370461;26;20471;-75
2024/04/27 08:22:15;;;;;;;9.25;3.33;;;;;;;;;;5370510;26;19996;-73
2024/04/27 08:24:45;;;;;;;7.93;3.30;;;;;;;;;;5369928;26;20028;-76
2024/04/27 08:27:16;;;;;;;8.73;3.65;;;;;;;;;;5368521;26;20006;-76
2024/04/27 08:29:46;;;;;;;5.47;3.83;;;;;;;;;;5370323;26;20024;-74
2024/04/27 08:32:16;;;;;;;9.70;4.05;;;;;;;;;;5370050;26;20028;-75
2024/04/27 08:34:46;;;;;;;6.72;3.78;;;;;;;;;;5370506;26;20028;-76
2024/04/27 08:37:18;;;;;;;8.15;3.45;;;;;;;;;;5370283;26;20032;-73
2024/04/27 08:39:50;;;;;;;5.53;3.58;;;;;;;;;;5369963;26;20036;-76
2024/04/27 08:42:24;;;;;;;9.77;4.13;;;;;;;;;;5368669;26;20067;-76
2024/04/27 08:44:56;;;;;;;8.05;3.80;;;;;;;;;;5372536;26;20109;-74
2024/04/27 08:47:27;;;;;;;7.00;3.72;;;;;;;;;;5373406;26;20531;-74
2024/04/27 08:50:00;;;;;;;6.65;3.67;;;;;;;;;;5372963;26;20032;-76
2024/04/27 08:52:31;;;;;;;4.63;3.35;;;;;;;;;;5373126;26;20024;-76
2024/04/27 08:55:01;;;;;;;5.38;3.45;;;;;;;;;;5373689;26;20028;-74
2024/04/27 08:57:31;;;;;;;4.65;3.25;;;;;;;;;;5371695;26;20024;-76
2024/04/27 09:00:01;;;;;;;9.00;4.00;;;;;;;;;;5373435;26;20023;-76
2024/04/27 09:02:35;;;;;;;7.50;4.18;;;;;;;;;;5372812;26;20032;-73
2024/04/27 09:05:06;;;;;;;13.88;3.30;;;;;;;;;;5373420;26;20040;-76
2024/04/27 09:07:37;;;;;;;7.82;3.88;;;;;;;;;;5373294;26;20024;-75
2024/04/27 09:10:08;;;;;;;9.27;3.70;;;;;;;;;;5373902;26;20036;-74
2024/04/27 09:12:43;;;;;;;7.38;3.63;;;;;;;;;;5372328;26;20373;-74
2024/04/27 09:15:14;;;;;;;8.32;3.50;;;;;;;;;;5372571;26;20024;-74
2024/04/27 09:17:45;;;;;;;5.03;3.58;;;;;;;;;;5372505;26;20901;-76
2024/04/27 09:20:16;;;;;;;5.90;3.55;;;;;;;;;;5371234;26;20030;-75
2024/04/27 09:22:47;;;;;;;9.00;3.90;;;;;;;;;;5373008;26;20475;-75
2024/04/27 09:25:20;;;;;;;8.68;3.90;;;;;;;;;;5373609;26;20020;-74
2024/04/27 09:27:59;;;;;;;10.25;3.72;;;;;;;;;;5375034;26;20097;-74
2024/04/27 09:30:29;;;;;;;6.00;3.70;;;;;;;;;;5372524;26;20039;-75
2024/04/27 09:33:00;;;;;;;5.13;3.45;;;;;;;;;;5372259;26;20483;-76
2024/04/27 09:35:32;;;;;;;9.10;3.58;;;;;;;;;;5372479;26;20028;-76
2024/04/27 09:38:07;;;;;;;6.30;3.83;;;;;;;;;;5372498;26;20367;-74
2024/04/27 09:40:39;;;;;;;7.97;3.67;;;;;;;;;;5372458;26;20297;-74
2024/04/27 09:43:13;;;;;;;9.43;3.75;;;;;;;;;;5372718;26;20025;-74
2024/04/27 09:45:52;;;;;;;9.52;3.30;;;;;;;;;;5371818;26;20036;-76
2024/04/27 09:48:28;;;;;;;9.63;3.75;;;;;;;;;;5372047;26;20125;-74
2024/04/27 09:51:10;;;;;;;7.13;3.85;;;;;;;;;;5372114;26;20020;-75
2024/04/27 09:53:42;;;;;;;8.00;3.45;;;;;;;;;;5372525;26;20024;-76
2024/04/27 09:56:13;;;;;;;6.07;3.78;;;;;;;;;;5370853;26;20024;-76
2024/04/27 09:58:44;;;;;;;4.72;3.55;;;;;;;;;;5373322;26;20024;-75
2024/04/27 10:01:15;;;;;;;6.43;3.58;;;;;;;;;;5372341;26;20036;-76
2024/04/27 10:03:58;;;;;;;6.63;3.58;;;;;;;;;;5371766;26;20721;-77
2024/04/27 10:06:35;;;;;;;10.15;3.67;;;;;;;;;;5372397;26;20032;-74
2024/04/27 10:09:09;;;;;;;6.63;4.10;;;;;;;;;;5372934;26;20028;-75
2024/04/27 10:11:39;;;;;;;5.15;3.67;;;;;;;;;;5371641;26;20043;-75
2024/04/27 10:14:11;;;;;;;5.78;4.38;;;;;;;;;;5372273;26;20020;-75
2024/04/27 10:16:42;;;;;;;7.65;3.42;;;;;;;;;;5372611;26;20039;-76
2024/04/27 10:19:13;;;;;;;8.38;4.10;;;;;;;;;;5372418;26;20028;-76
2024/04/27 10:21:43;;;;;;;5.68;3.88;;;;;;;;;;5372256;26;19996;-76
2024/04/27 10:24:17;;;;;;;6.15;3.97;;;;;;;;;;5371382;26;20036;-77
2024/04/27 10:26:48;;;;;;;5.68;3.50;;;;;;;;;;5371937;26;20383;-76
2024/04/27 10:29:32;;;;;;;5.90;3.70;;;;;;;;;;5372478;26;20036;-74
2024/04/27 10:32:04;;;;;;;6.65;3.67;;;;;;;;;;5371892;26;20032;-74
2024/04/27 10:34:35;;;;;;;5.88;3.97;;;;;;;;;;5371567;26;20127;-77
2024/04/27 10:37:06;;;;;;;7.53;3.63;;;;;;;;;;5371926;26;20024;-77
2024/04/27 10:39:49;;;;;;;8.20;3.88;;;;;;;;;;5371382;26;20036;-76
2024/04/27 10:42:20;;;;;;;8.10;4.05;;;;;;;;;;5371477;26;19999;-77
2024/04/27 10:44:50;;;;;;;8.40;4.25;;;;;;;;;;5371668;26;20364;-79
2024/04/27 10:47:21;;;;;;;8.48;4.15;;;;;;;;;;5372404;26;20024;-75
2024/04/27 10:49:53;;;;;;;6.82;3.80;;;;;;;;;;5371324;26;20023;-76
2024/04/27 10:52:23;;;;;;;6.57;3.65;;;;;;;;;;5371821;26;20292;-75
2024/04/27 10:54:54;;;;;;;5.40;3.63;;;;;;;;;;5370144;26;20331;-76
2024/04/27 10:57:25;;;;;;;5.93;3.92;;;;;;;;;;5370236;26;20031;-74
2024/04/27 10:59:56;;;;;;;7.93;3.75;;;;;;;;;;5371766;26;20032;-76
2024/04/27 11:02:33;;;;;;;9.40;4.47;;;;;;;;;;5372817;26;20036;-77
2024/04/27 11:05:05;;;;;;;7.07;3.95;;;;;;;;;;5371835;26;20032;-74
2024/04/27 11:07:37;;;;;;;10.68;3.72;;;;;;;;;;5370701;26;20524;-77
2024/04/27 11:10:08;;;;;;;5.88;4.07;;;;;;;;;;5371836;26;20024;-74
2024/04/27 11:12:38;;;;;;;7.32;3.53;;;;;;;;;;5371753;26;20724;-75
2024/04/27 11:15:09;;;;;;;6.20;3.53;;;;;;;;;;5371672;26;20024;-76
2024/04/27 11:17:42;;;;;;;8.38;3.83;;;;;;;;;;5371203;26;20378;-74
2024/04/27 11:20:13;;;;;;;6.70;3.60;;;;;;;;;;5372091;26;20036;-78
2024/04/27 11:22:44;;;;;;;6.00;3.90;;;;;;;;;;5371058;26;20000;-77
2024/04/27 11:25:14;;;;;;;6.70;4.45;;;;;;;;;;5370964;26;20104;-76
2024/04/27 11:27:47;;;;;;;6.00;3.95;;;;;;;;;;5370884;26;20047;-77
2024/04/27 11:30:17;;;;;;;7.63;3.40;;;;;;;;;;5372184;26;20487;-77
2024/04/27 11:32:47;;;;;;;4.68;3.47;;;;;;;;;;5370543;26;20025;-77
2024/04/27 11:35:17;;;;;;;6.15;3.42;;;;;;;;;;5371559;26;20020;-74
2024/04/27 11:37:48;;;;;;;7.13;3.90;;;;;;;;;;5371671;26;20036;-78
2024/04/27 11:40:19;;;;;;;4.88;3.33;;;;;;;;;;5370824;26;20569;-76
2024/04/27 11:42:50;;;;;;;5.43;3.75;;;;;;;;;;5371328;26;20032;-80
2024/04/27 11:45:20;;;;;;;7.50;3.60;;;;;;;;;;5371028;26;20440;-76
2024/04/27 11:47:51;;;;;;;7.22;3.63;;;;;;;;;;5370936;26;20023;-78
2024/04/27 11:50:21;;;;;;;6.72;4.50;;;;;;;;;;5370739;26;20020;-75
2024/04/27 11:52:52;;;;;;;9.02;4.22;;;;;;;;;;5370673;26;20624;-76
2024/04/27 11:55:22;;;;;;;7.95;4.32;;;;;;;;;;5371638;26;20055;-78
2024/04/27 11:57:52;;;;;;;5.88;3.72;;;;;;;;;;5370785;26;20466;-76
2024/04/27 12:00:25;;;;;;;4.55;3.22;;;;;;;;;;5369616;26;20032;-76
2024/04/27 12:02:57;;;;;;;4.95;3.92;;;;;;;;;;5369341;26;20090;-74
2024/04/27 12:05:27;;;;;;;5.28;3.78;;;;;;;;;;5371181;26;20028;-78
2024/04/27 12:07:58;;;;;;;6.82;3.67;;;;;;;;;;5371636;26;20028;-76
2024/04/27 12:10:30;;;;;;;6.20;3.47;;;;;;;;;;5372513;26;20024;-73
2024/04/27 12:13:00;;;;;;;7.03;3.65;;;;;;;;;;5370540;26;20020;-74
2024/04/27 12:15:31;;;;;;;6.10;3.38;;;;;;;;;;5371468;26;20024;-75
2024/04/27 12:18:02;;;;;;;7.70;3.25;;;;;;;;;;5370383;26;20032;-78
2024/04/27 12:20:32;;;;;;;9.63;3.42;;;;;;;;;;5371678;26;20063;-77
2024/04/27 12:23:03;;;;;;;5.57;3.30;;;;;;;;;;5370374;26;20341;-76
2024/04/27 12:25:33;;;;;;;5.03;2.92;;;;;;;;;;5370150;26;20368;-76
2024/04/27 12:28:05;;;;;;;3.92;3.00;;;;;;;;;;5371010;26;20028;-78
2024/04/27 12:30:37;;;;;;;5.95;3.70;;;;;;;;;;5369880;26;20414;-77
2024/04/27 12:33:08;;;;;;;4.40;3.00;;;;;;;;;;5369468;26;20044;-77
2024/04/27 12:35:39;;;;;;;6.30;3.20;;;;;;;;;;5369824;26;20028;-77
2024/04/27 12:38:10;;;;;;;6.15;3.10;;;;;;;;;;5369553;26;20484;-77
2024/04/27 12:40:41;;;;;;;8.80;3.05;;;;;;;;;;5370322;26;20032;-76
2024/04/27 12:43:12;;;;;;;4.07;3.00;;;;;;;;;;5369542;26;19996;-78
2024/04/27 12:45:46;;;;;;;5.10;2.78;;;;;;;;;;5369276;26;20024;-75
2024/04/27 12:48:17;;;;;;;5.35;2.80;;;;;;;;;;5370093;26;20028;-74
2024/04/27 12:50:48;;;;;;;7.60;2.63;;;;;;;;;;5369686;26;20028;-76
2024/04/27 12:53:19;;;;;;;7.07;3.15;;;;;;;;;;5369684;26;20364;-78
2024/04/27 12:55:49;;;;;;;5.05;2.78;;;;;;;;;;5369916;26;20481;-75
2024/04/27 12:58:20;;;;;;;5.28;2.90;;;;;;;;;;5370783;26;20032;-76
2024/04/27 13:00:51;;;;;;;4.88;2.85;;;;;;;;;;5368416;26;20024;-75
2024/04/27 13:03:23;;;;;;;5.13;3.10;;;;;;;;;;5369515;26;20032;-78
2024/04/27 13:05:54;;;;;;;4.90;3.00;;;;;;;;;;5370544;26;20028;-75
2024/04/27 13:08:24;;;;;;;5.68;3.15;;;;;;;;;;5369201;26;20028;-78
2024/04/27 13:10:55;;;;;;;8.13;3.20;;;;;;;;;;5369750;26;20033;-77
2024/04/27 13:13:26;;;;;;;7.72;3.00;;;;;;;;;;5370859;26;20020;-76
2024/04/27 13:15:58;;;;;;;4.38;2.70;;;;;;;;;;5369117;26;20024;-79
2024/04/27 13:18:28;;;;;;;9.07;3.00;;;;;;;;;;5368922;26;20013;-77
2024/04/27 13:21:00;;;;;;;5.03;2.67;;;;;;;;;;5369513;26;20024;-78
2024/04/27 13:23:31;;;;;;;6.32;3.20;;;;;;;;;;5369209;26;20020;-74
2024/04/27 13:26:02;;;;;;;5.88;3.40;;;;;;;;;;5370056;26;20738;-76
2024/04/27 13:28:32;;;;;;;4.30;2.90;;;;;;;;;;5370141;26;20017;-75
2024/04/27 13:31:03;;;;;;;6.90;2.78;;;;;;;;;;5371476;26;20028;-75
2024/04/27 13:33:34;;;;;;;4.50;3.58;;;;;;;;;;5373584;26;20020;-74
2024/04/27 13:36:05;;;;;;;6.30;3.42;;;;;;;;;;5373205;26;20028;-80
2024/04/27 13:38:35;;;;;;;5.10;3.30;;;;;;;;;;5372957;26;20024;-78
2024/04/27 13:41:06;;;;;;;4.50;2.88;;;;;;;;;;5373793;26;20376;-80
2024/04/27 13:43:37;;;;;;;4.38;2.88;;;;;;;;;;5372593;26;20021;-76
2024/04/27 13:46:08;;;;;;;4.40;3.00;;;;;;;;;;5372356;26;20471;-76
2024/04/27 13:48:39;;;;;;;6.35;3.40;;;;;;;;;;5373318;26;20024;-80
2024/04/27 13:51:10;;;;;;;7.68;2.83;;;;;;;;;;5370929;26;19996;-74
2024/04/27 13:53:41;;;;;;;6.95;2.80;;;;;;;;;;5372002;26;20024;-79
2024/04/27 13:56:10;;;;;;;6.38;3.10;;;;;;;;;;5372808;26;20620;-75
2024/04/27 13:58:41;;;;;;;6.45;3.00;;;;;;;;;;5342527;26;20028;-74
2024/04/27 14:01:12;;;;;;;9.07;3.13;;;;;;;;;;5372596;26;20028;-76
2024/04/27 14:03:43;;;;;;;5.00;3.22;;;;;;;;;;5370381;26;20000;-76
2024/04/27 14:06:13;;;;;;;5.20;3.20;;;;;;;;;;5372130;26;20028;-76
2024/04/27 14:08:43;;;;;;;7.25;2.88;;;;;;;;;;5373191;26;20024;-74
2024/04/27 14:11:13;;;;;;;5.88;2.80;;;;;;;;;;5371387;26;20032;-79
2024/04/27 14:13:43;;;;;;;5.57;3.47;;;;;;;;;;5371143;26;20003;-79
2024/04/27 14:16:14;;;;;;;8.18;3.65;;;;;;;;;;5372409;26;20778;-76
2024/04/27 14:18:45;;;;;;;7.35;3.47;;;;;;;;;;5371978;26;20024;-76
2024/04/27 14:21:16;;;;;;;5.47;2.85;;;;;;;;;;5372651;26;20036;-73
2024/04/27 14:23:46;;;;;;;8.20;3.05;;;;;;;;;;5371984;26;20470;-75
2024/04/27 14:26:17;;;;;;;8.23;3.47;;;;;;;;;;5372216;26;20028;-77
2024/04/27 14:28:48;;;;;;;4.28;3.28;;;;;;;;;;5371872;26;20032;-76
2024/04/27 14:31:20;;;;;;;6.97;3.03;;;;;;;;;;5369903;26;20007;-75
2024/04/27 14:33:51;;;;;;;7.68;2.65;;;;;;;;;;5371654;26;20032;-77
2024/04/27 14:36:21;;;;;;;7.07;3.15;;;;;;;;;;5371287;26;20496;-77
2024/04/27 14:38:53;;;;;;;11.77;3.72;;;;;;;;;;5371450;26;20029;-79
2024/04/27 14:41:25;;;;;;;8.75;3.38;;;;;;;;;;5371592;26;20032;-82
2024/04/27 14:43:55;;;;;;;9.98;2.90;;;;;;;;;;5371497;26;19996;-76
2024/04/27 14:46:29;;;;;;;7.43;2.85;;;;;;;;;;5370716;26;20485;-76
2024/04/27 14:48:59;;;;;;;5.53;2.95;;;;;;;;;;5370792;26;20024;-77
2024/04/27 14:51:30;;;;;;;10.45;5.93;;;;;;;;;;5371871;26;20028;-75
2024/04/27 14:54:00;;;;;;;10.35;4.28;;;;;;;;;;5370956;26;20020;-78
2024/04/27 14:56:32;;;;;;;5.32;3.33;;;;;;;;;;5370792;26;20032;-75
2024/04/27 14:59:03;;;;;;;6.78;3.05;;;;;;;;;;5370872;26;20048;-77
2024/04/27 15:01:34;;;;;;;6.20;3.10;;;;;;;;;;5372380;26;20028;-76
2024/04/27 15:04:04;;;;;;;5.57;2.83;;;;;;;;;;5372373;26;20040;-77
2024/04/27 15:06:41;;;;;;;5.07;2.78;;;;;;;;;;5369526;26;20037;-77
2024/04/27 15:09:13;;;;;;;34.97;3.95;;;;;;;;;;5372113;26;20468;-78